sensor_id;sensor_type;location;lat;lon;timestamp;P1;durP1;ratioP1;P2;durP2;ratioP2
17175;SDS011;8703;48.996;9.594;2023-07-22T00:00:33;3.60;;;2.60;;
17175;SDS011;8703;48.996;9.594;2023-07-22T00:03:02;3.13;;;2.60;;
17175;SDS011;8703;48.996;9.594;2023-07-22T00:05:29;5.03;;;2.97;;
17175;SDS011;8703;48.996;9.594;2023-07-22T00:07:57;3.57;;;2.60;;
17175;SDS011;8703;48.996;9.594;2023-07-22T00:10:24;4.83;;;2.87;;
17175;SDS011;8703;48.996;9.594;2023-07-22T00:12:51;3.43;;;2.50;;
17175;SDS011;8703;48.996;9.594;2023-07-22T00:15:19;6.87;;;2.50;;
17175;SDS011;8703;48.996;9.594;2023-07-22T00:17:48;4.07;;;2.87;;
17175;SDS011;8703;48.996;9.594;2023-07-22T00:20:17;4.80;;;2.43;;
17175;SDS011;8703;48.996;9.594;2023-07-22T00:22:45;3.20;;;2.43;;
17175;SDS011;8703;48.996;9.594;2023-07-22T00:25:12;2.57;;;2.20;;
17175;SDS011;8703;48.996;9.594;2023-07-22T00:27:40;3.93;;;2.27;;
17175;SDS011;8703;48.996;9.594;2023-07-22T00:30:08;2.93;;;2.40;;
17175;SDS011;8703;48.996;9.594;2023-07-22T00:32:36;3.27;;;2.50;;
17175;SDS011;8703;48.996;9.594;2023-07-22T00:35:03;2.37;;;2.07;;
17175;SDS011;8703;48.996;9.594;2023-07-22T00:37:32;2.93;;;1.97;;
17175;SDS011;8703;48.996;9.594;2023-07-22T00:40:00;3.50;;;2.13;;
17175;SDS011;8703;48.996;9.594;2023-07-22T00:42:31;3.80;;;2.10;;
17175;SDS011;8703;48.996;9.594;2023-07-22T00:44:58;2.10;;;1.90;;
17175;SDS011;8703;48.996;9.594;2023-07-22T00:47:25;3.33;;;2.40;;
17175;SDS011;8703;48.996;9.594;2023-07-22T00:49:53;3.37;;;2.47;;
17175;SDS011;8703;48.996;9.594;2023-07-22T00:52:21;4.30;;;2.70;;
17175;SDS011;8703;48.996;9.594;2023-07-22T00:54:50;2.60;;;2.40;;
17175;SDS011;8703;48.996;9.594;2023-07-22T00:57:17;3.23;;;2.17;;
17175;SDS011;8703;48.996;9.594;2023-07-22T00:59:45;3.57;;;2.30;;
17175;SDS011;8703;48.996;9.594;2023-07-22T01:02:13;3.60;;;2.30;;
17175;SDS011;8703;48.996;9.594;2023-07-22T01:04:40;3.60;;;2.27;;
17175;SDS011;8703;48.996;9.594;2023-07-22T01:07:08;2.13;;;1.93;;
17175;SDS011;8703;48.996;9.594;2023-07-22T01:09:36;2.37;;;2.17;;
17175;SDS011;8703;48.996;9.594;2023-07-22T01:12:05;2.30;;;2.10;;
17175;SDS011;8703;48.996;9.594;2023-07-22T01:14:33;3.63;;;2.30;;
17175;SDS011;8703;48.996;9.594;2023-07-22T01:17:01;2.97;;;2.10;;
17175;SDS011;8703;48.996;9.594;2023-07-22T01:19:30;2.77;;;2.00;;
17175;SDS011;8703;48.996;9.594;2023-07-22T01:21:57;3.57;;;2.00;;
17175;SDS011;8703;48.996;9.594;2023-07-22T01:24:28;6.87;;;2.30;;
17175;SDS011;8703;48.996;9.594;2023-07-22T01:26:56;3.17;;;2.17;;
17175;SDS011;8703;48.996;9.594;2023-07-22T01:29:23;3.30;;;2.00;;
17175;SDS011;8703;48.996;9.594;2023-07-22T01:31:52;2.80;;;2.00;;
17175;SDS011;8703;48.996;9.594;2023-07-22T01:34:20;2.97;;;2.00;;
17175;SDS011;8703;48.996;9.594;2023-07-22T01:36:49;2.93;;;2.20;;
17175;SDS011;8703;48.996;9.594;2023-07-22T01:39:17;2.60;;;1.87;;
17175;SDS011;8703;48.996;9.594;2023-07-22T01:41:46;2.43;;;2.00;;
17175;SDS011;8703;48.996;9.594;2023-07-22T01:44:13;4.37;;;2.37;;
17175;SDS011;8703;48.996;9.594;2023-07-22T01:46:41;3.07;;;2.20;;
17175;SDS011;8703;48.996;9.594;2023-07-22T01:49:10;4.27;;;2.43;;
17175;SDS011;8703;48.996;9.594;2023-07-22T01:51:37;2.40;;;1.90;;
17175;SDS011;8703;48.996;9.594;2023-07-22T01:54:05;2.33;;;2.03;;
17175;SDS011;8703;48.996;9.594;2023-07-22T01:56:34;2.67;;;2.20;;
17175;SDS011;8703;48.996;9.594;2023-07-22T01:59:03;3.03;;;2.10;;
17175;SDS011;8703;48.996;9.594;2023-07-22T02:01:30;3.07;;;2.17;;
17175;SDS011;8703;48.996;9.594;2023-07-22T02:03:58;3.57;;;2.13;;
17175;SDS011;8703;48.996;9.594;2023-07-22T02:06:25;3.57;;;2.10;;
17175;SDS011;8703;48.996;9.594;2023-07-22T02:08:53;2.40;;;1.97;;
17175;SDS011;8703;48.996;9.594;2023-07-22T02:11:21;3.30;;;2.10;;
17175;SDS011;8703;48.996;9.594;2023-07-22T02:13:49;3.10;;;2.37;;
17175;SDS011;8703;48.996;9.594;2023-07-22T02:16:17;2.43;;;2.10;;
17175;SDS011;8703;48.996;9.594;2023-07-22T02:18:45;2.83;;;1.83;;
17175;SDS011;8703;48.996;9.594;2023-07-22T02:21:12;3.83;;;2.30;;
17175;SDS011;8703;48.996;9.594;2023-07-22T02:23:40;2.80;;;2.30;;
17175;SDS011;8703;48.996;9.594;2023-07-22T02:26:07;3.23;;;2.20;;
17175;SDS011;8703;48.996;9.594;2023-07-22T02:28:35;3.00;;;2.40;;
17175;SDS011;8703;48.996;9.594;2023-07-22T02:31:03;3.33;;;2.47;;
17175;SDS011;8703;48.996;9.594;2023-07-22T02:33:33;2.83;;;2.20;;
17175;SDS011;8703;48.996;9.594;2023-07-22T02:36:00;2.43;;;2.10;;
17175;SDS011;8703;48.996;9.594;2023-07-22T02:38:28;2.60;;;2.00;;
17175;SDS011;8703;48.996;9.594;2023-07-22T02:41:00;2.20;;;2.00;;
17175;SDS011;8703;48.996;9.594;2023-07-22T02:43:30;3.70;;;2.10;;
17175;SDS011;8703;48.996;9.594;2023-07-22T02:45:59;3.57;;;2.20;;
17175;SDS011;8703;48.996;9.594;2023-07-22T02:48:27;3.03;;;2.13;;
17175;SDS011;8703;48.996;9.594;2023-07-22T02:51:01;2.90;;;2.10;;
17175;SDS011;8703;48.996;9.594;2023-07-22T02:53:30;2.60;;;2.10;;
17175;SDS011;8703;48.996;9.594;2023-07-22T02:55:57;3.27;;;2.40;;
17175;SDS011;8703;48.996;9.594;2023-07-22T02:58:25;3.70;;;2.07;;
17175;SDS011;8703;48.996;9.594;2023-07-22T03:00:52;4.73;;;2.30;;
17175;SDS011;8703;48.996;9.594;2023-07-22T03:03:19;2.50;;;1.93;;
17175;SDS011;8703;48.996;9.594;2023-07-22T03:05:47;2.50;;;2.07;;
17175;SDS011;8703;48.996;9.594;2023-07-22T03:08:16;2.87;;;2.20;;
17175;SDS011;8703;48.996;9.594;2023-07-22T03:10:43;2.53;;;2.00;;
17175;SDS011;8703;48.996;9.594;2023-07-22T03:13:13;3.80;;;2.50;;
17175;SDS011;8703;48.996;9.594;2023-07-22T03:15:41;2.67;;;2.10;;
17175;SDS011;8703;48.996;9.594;2023-07-22T03:18:08;3.57;;;2.10;;
17175;SDS011;8703;48.996;9.594;2023-07-22T03:20:36;3.87;;;2.20;;
17175;SDS011;8703;48.996;9.594;2023-07-22T03:23:03;4.10;;;2.00;;
17175;SDS011;8703;48.996;9.594;2023-07-22T03:25:32;3.13;;;2.20;;
17175;SDS011;8703;48.996;9.594;2023-07-22T03:28:00;2.93;;;2.10;;
17175;SDS011;8703;48.996;9.594;2023-07-22T03:30:30;2.10;;;1.90;;
17175;SDS011;8703;48.996;9.594;2023-07-22T03:32:58;3.23;;;1.77;;
17175;SDS011;8703;48.996;9.594;2023-07-22T03:35:25;2.60;;;1.90;;
17175;SDS011;8703;48.996;9.594;2023-07-22T03:37:53;2.83;;;2.20;;
17175;SDS011;8703;48.996;9.594;2023-07-22T03:40:20;2.50;;;2.10;;
17175;SDS011;8703;48.996;9.594;2023-07-22T03:42:53;3.53;;;2.30;;
17175;SDS011;8703;48.996;9.594;2023-07-22T03:45:22;2.77;;;2.10;;
17175;SDS011;8703;48.996;9.594;2023-07-22T03:47:50;3.10;;;2.17;;
17175;SDS011;8703;48.996;9.594;2023-07-22T03:50:19;3.47;;;1.90;;
17175;SDS011;8703;48.996;9.594;2023-07-22T03:52:46;3.97;;;1.80;;
17175;SDS011;8703;48.996;9.594;2023-07-22T03:55:13;2.63;;;2.03;;
17175;SDS011;8703;48.996;9.594;2023-07-22T03:57:41;3.13;;;1.97;;
17175;SDS011;8703;48.996;9.594;2023-07-22T04:00:10;2.70;;;2.13;;
17175;SDS011;8703;48.996;9.594;2023-07-22T04:02:38;2.90;;;2.03;;
17175;SDS011;8703;48.996;9.594;2023-07-22T04:05:05;4.40;;;2.50;;
17175;SDS011;8703;48.996;9.594;2023-07-22T04:07:33;5.47;;;2.10;;
17175;SDS011;8703;48.996;9.594;2023-07-22T04:10:00;3.80;;;2.17;;
17175;SDS011;8703;48.996;9.594;2023-07-22T04:12:28;3.97;;;2.70;;
17175;SDS011;8703;48.996;9.594;2023-07-22T04:14:56;3.43;;;2.60;;
17175;SDS011;8703;48.996;9.594;2023-07-22T04:17:25;75.50;;;47.27;;
17175;SDS011;8703;48.996;9.594;2023-07-22T04:19:52;8.07;;;6.07;;
17175;SDS011;8703;48.996;9.594;2023-07-22T04:22:20;3.17;;;2.33;;
17175;SDS011;8703;48.996;9.594;2023-07-22T04:24:47;2.20;;;2.00;;
17175;SDS011;8703;48.996;9.594;2023-07-22T04:27:15;4.47;;;2.30;;
17175;SDS011;8703;48.996;9.594;2023-07-22T04:29:43;2.40;;;2.07;;
17175;SDS011;8703;48.996;9.594;2023-07-22T04:32:10;3.93;;;2.10;;
17175;SDS011;8703;48.996;9.594;2023-07-22T04:34:39;4.20;;;2.13;;
17175;SDS011;8703;48.996;9.594;2023-07-22T04:37:06;3.63;;;2.33;;
17175;SDS011;8703;48.996;9.594;2023-07-22T04:39:34;3.63;;;2.13;;
17175;SDS011;8703;48.996;9.594;2023-07-22T04:42:01;7.43;;;2.70;;
17175;SDS011;8703;48.996;9.594;2023-07-22T04:44:29;2.73;;;2.20;;
17175;SDS011;8703;48.996;9.594;2023-07-22T04:46:56;3.37;;;2.23;;
17175;SDS011;8703;48.996;9.594;2023-07-22T04:49:23;17.30;;;9.00;;
17175;SDS011;8703;48.996;9.594;2023-07-22T04:51:52;5.27;;;3.33;;
17175;SDS011;8703;48.996;9.594;2023-07-22T04:54:19;9.03;;;5.97;;
17175;SDS011;8703;48.996;9.594;2023-07-22T04:56:47;37.03;;;20.97;;
17175;SDS011;8703;48.996;9.594;2023-07-22T04:59:14;54.83;;;29.47;;
17175;SDS011;8703;48.996;9.594;2023-07-22T05:01:42;56.23;;;30.10;;
17175;SDS011;8703;48.996;9.594;2023-07-22T05:04:09;73.70;;;36.17;;
17175;SDS011;8703;48.996;9.594;2023-07-22T05:06:37;41.53;;;21.53;;
17175;SDS011;8703;48.996;9.594;2023-07-22T05:09:05;46.87;;;24.23;;
17175;SDS011;8703;48.996;9.594;2023-07-22T05:11:33;57.17;;;31.80;;
17175;SDS011;8703;48.996;9.594;2023-07-22T05:14:00;60.33;;;35.00;;
17175;SDS011;8703;48.996;9.594;2023-07-22T05:16:28;33.30;;;18.67;;
17175;SDS011;8703;48.996;9.594;2023-07-22T05:18:55;46.83;;;26.00;;
17175;SDS011;8703;48.996;9.594;2023-07-22T05:21:22;33.90;;;19.43;;
17175;SDS011;8703;48.996;9.594;2023-07-22T05:23:50;46.97;;;26.80;;
17175;SDS011;8703;48.996;9.594;2023-07-22T05:26:18;47.67;;;27.50;;
17175;SDS011;8703;48.996;9.594;2023-07-22T05:28:46;42.60;;;24.70;;
17175;SDS011;8703;48.996;9.594;2023-07-22T05:31:13;37.50;;;21.83;;
17175;SDS011;8703;48.996;9.594;2023-07-22T05:33:41;26.77;;;15.70;;
17175;SDS011;8703;48.996;9.594;2023-07-22T05:36:09;19.47;;;11.47;;
17175;SDS011;8703;48.996;9.594;2023-07-22T05:38:36;14.40;;;8.73;;
17175;SDS011;8703;48.996;9.594;2023-07-22T05:41:03;13.63;;;8.90;;
17175;SDS011;8703;48.996;9.594;2023-07-22T05:43:32;5.93;;;4.80;;
17175;SDS011;8703;48.996;9.594;2023-07-22T05:45:59;6.00;;;3.60;;
17175;SDS011;8703;48.996;9.594;2023-07-22T05:48:27;5.70;;;4.20;;
17175;SDS011;8703;48.996;9.594;2023-07-22T05:50:54;6.17;;;4.37;;
17175;SDS011;8703;48.996;9.594;2023-07-22T05:53:21;5.60;;;3.40;;
17175;SDS011;8703;48.996;9.594;2023-07-22T05:55:49;5.40;;;3.80;;
17175;SDS011;8703;48.996;9.594;2023-07-22T05:58:17;5.97;;;3.67;;
17175;SDS011;8703;48.996;9.594;2023-07-22T06:00:45;4.43;;;3.60;;
17175;SDS011;8703;48.996;9.594;2023-07-22T06:03:14;5.67;;;3.90;;
17175;SDS011;8703;48.996;9.594;2023-07-22T06:05:41;6.13;;;3.67;;
17175;SDS011;8703;48.996;9.594;2023-07-22T06:08:09;5.03;;;3.63;;
17175;SDS011;8703;48.996;9.594;2023-07-22T06:10:36;8.63;;;6.30;;
17175;SDS011;8703;48.996;9.594;2023-07-22T06:13:03;9.60;;;6.20;;
17175;SDS011;8703;48.996;9.594;2023-07-22T06:15:31;8.00;;;3.80;;
17175;SDS011;8703;48.996;9.594;2023-07-22T06:18:00;6.80;;;5.07;;
17175;SDS011;8703;48.996;9.594;2023-07-22T06:20:27;6.53;;;4.13;;
17175;SDS011;8703;48.996;9.594;2023-07-22T06:22:55;23.93;;;13.03;;
17175;SDS011;8703;48.996;9.594;2023-07-22T06:25:22;38.17;;;20.83;;
17175;SDS011;8703;48.996;9.594;2023-07-22T06:27:50;6.10;;;4.80;;
17175;SDS011;8703;48.996;9.594;2023-07-22T06:30:19;8.00;;;5.13;;
17175;SDS011;8703;48.996;9.594;2023-07-22T06:32:46;11.93;;;7.37;;
17175;SDS011;8703;48.996;9.594;2023-07-22T06:35:15;5.93;;;3.87;;
17175;SDS011;8703;48.996;9.594;2023-07-22T06:37:43;5.73;;;3.90;;
17175;SDS011;8703;48.996;9.594;2023-07-22T06:40:10;5.03;;;3.43;;
17175;SDS011;8703;48.996;9.594;2023-07-22T06:42:38;5.27;;;3.60;;
17175;SDS011;8703;48.996;9.594;2023-07-22T06:45:06;5.07;;;3.20;;
17175;SDS011;8703;48.996;9.594;2023-07-22T06:47:33;3.63;;;3.07;;
17175;SDS011;8703;48.996;9.594;2023-07-22T06:50:01;6.00;;;2.90;;
17175;SDS011;8703;48.996;9.594;2023-07-22T06:52:30;3.33;;;3.03;;
17175;SDS011;8703;48.996;9.594;2023-07-22T06:54:58;4.07;;;3.00;;
17175;SDS011;8703;48.996;9.594;2023-07-22T06:57:25;3.90;;;3.33;;
17175;SDS011;8703;48.996;9.594;2023-07-22T06:59:53;4.77;;;3.77;;
17175;SDS011;8703;48.996;9.594;2023-07-22T07:02:20;4.27;;;3.40;;
17175;SDS011;8703;48.996;9.594;2023-07-22T07:04:48;4.97;;;2.53;;
17175;SDS011;8703;48.996;9.594;2023-07-22T07:07:15;3.43;;;2.20;;
17175;SDS011;8703;48.996;9.594;2023-07-22T07:09:44;4.43;;;2.33;;
17175;SDS011;8703;48.996;9.594;2023-07-22T07:12:12;3.40;;;2.50;;
17175;SDS011;8703;48.996;9.594;2023-07-22T07:14:39;5.00;;;2.37;;
17175;SDS011;8703;48.996;9.594;2023-07-22T07:17:06;3.55;;;2.40;;
17175;SDS011;8703;48.996;9.594;2023-07-22T07:19:34;4.43;;;2.30;;
17175;SDS011;8703;48.996;9.594;2023-07-22T07:22:01;2.47;;;2.20;;
17175;SDS011;8703;48.996;9.594;2023-07-22T07:24:29;3.50;;;2.13;;
17175;SDS011;8703;48.996;9.594;2023-07-22T07:26:58;2.38;;;2.13;;
17175;SDS011;8703;48.996;9.594;2023-07-22T07:29:25;4.32;;;2.38;;
17175;SDS011;8703;48.996;9.594;2023-07-22T07:31:52;4.35;;;2.17;;
17175;SDS011;8703;48.996;9.594;2023-07-22T07:34:20;3.40;;;2.05;;
17175;SDS011;8703;48.996;9.594;2023-07-22T07:36:47;2.63;;;1.85;;
17175;SDS011;8703;48.996;9.594;2023-07-22T07:39:14;3.90;;;2.40;;
17175;SDS011;8703;48.996;9.594;2023-07-22T07:41:42;4.50;;;2.25;;
17175;SDS011;8703;48.996;9.594;2023-07-22T07:44:10;2.80;;;2.20;;
17175;SDS011;8703;48.996;9.594;2023-07-22T07:46:38;3.45;;;2.05;;
17175;SDS011;8703;48.996;9.594;2023-07-22T07:49:05;3.40;;;2.10;;
17175;SDS011;8703;48.996;9.594;2023-07-22T07:51:33;2.70;;;2.00;;
17175;SDS011;8703;48.996;9.594;2023-07-22T07:54:00;3.20;;;2.03;;
17175;SDS011;8703;48.996;9.594;2023-07-22T07:56:29;3.80;;;2.30;;
17175;SDS011;8703;48.996;9.594;2023-07-22T07:58:56;3.22;;;2.03;;
17175;SDS011;8703;48.996;9.594;2023-07-22T08:01:25;3.75;;;2.30;;
17175;SDS011;8703;48.996;9.594;2023-07-22T08:03:52;3.40;;;2.20;;
17175;SDS011;8703;48.996;9.594;2023-07-22T08:06:20;4.07;;;2.15;;
17175;SDS011;8703;48.996;9.594;2023-07-22T08:08:47;2.13;;;1.92;;
17175;SDS011;8703;48.996;9.594;2023-07-22T08:11:15;6.32;;;2.20;;
17175;SDS011;8703;48.996;9.594;2023-07-22T08:13:43;2.42;;;2.10;;
17175;SDS011;8703;48.996;9.594;2023-07-22T08:16:12;3.53;;;2.05;;
17175;SDS011;8703;48.996;9.594;2023-07-22T08:18:41;2.50;;;2.30;;
17175;SDS011;8703;48.996;9.594;2023-07-22T08:21:10;2.00;;;1.63;;
17175;SDS011;8703;48.996;9.594;2023-07-22T08:23:37;3.75;;;2.13;;
17175;SDS011;8703;48.996;9.594;2023-07-22T08:26:05;2.88;;;1.70;;
17175;SDS011;8703;48.996;9.594;2023-07-22T08:28:33;2.40;;;2.00;;
17175;SDS011;8703;48.996;9.594;2023-07-22T08:31:00;2.65;;;1.85;;
17175;SDS011;8703;48.996;9.594;2023-07-22T08:33:28;3.28;;;2.10;;
17175;SDS011;8703;48.996;9.594;2023-07-22T08:35:57;2.53;;;1.90;;
17175;SDS011;8703;48.996;9.594;2023-07-22T08:38:25;3.22;;;2.70;;
17175;SDS011;8703;48.996;9.594;2023-07-22T08:40:52;2.42;;;2.00;;
17175;SDS011;8703;48.996;9.594;2023-07-22T08:43:20;3.00;;;2.70;;
17175;SDS011;8703;48.996;9.594;2023-07-22T08:45:49;2.28;;;2.00;;
17175;SDS011;8703;48.996;9.594;2023-07-22T08:48:17;2.13;;;1.88;;
17175;SDS011;8703;48.996;9.594;2023-07-22T08:50:49;4.43;;;2.00;;
17175;SDS011;8703;48.996;9.594;2023-07-22T08:53:19;3.03;;;1.92;;
17175;SDS011;8703;48.996;9.594;2023-07-22T08:55:48;3.42;;;3.10;;
17175;SDS011;8703;48.996;9.594;2023-07-22T08:58:16;2.80;;;2.55;;
17175;SDS011;8703;48.996;9.594;2023-07-22T09:00:44;3.47;;;1.83;;
17175;SDS011;8703;48.996;9.594;2023-07-22T09:03:12;3.80;;;2.50;;
17175;SDS011;8703;48.996;9.594;2023-07-22T09:05:39;5.43;;;2.97;;
17175;SDS011;8703;48.996;9.594;2023-07-22T09:08:07;3.45;;;2.85;;
17175;SDS011;8703;48.996;9.594;2023-07-22T09:10:36;3.40;;;2.60;;
17175;SDS011;8703;48.996;9.594;2023-07-22T09:13:04;3.28;;;2.85;;
17175;SDS011;8703;48.996;9.594;2023-07-22T09:15:34;2.80;;;2.58;;
17175;SDS011;8703;48.996;9.594;2023-07-22T09:18:03;3.13;;;1.73;;
17175;SDS011;8703;48.996;9.594;2023-07-22T09:20:30;4.50;;;2.85;;
17175;SDS011;8703;48.996;9.594;2023-07-22T09:22:59;6.65;;;2.08;;
17175;SDS011;8703;48.996;9.594;2023-07-22T09:25:27;3.17;;;2.20;;
17175;SDS011;8703;48.996;9.594;2023-07-22T09:27:57;4.68;;;4.13;;
17175;SDS011;8703;48.996;9.594;2023-07-22T09:30:26;2.28;;;1.67;;
17175;SDS011;8703;48.996;9.594;2023-07-22T09:32:55;2.17;;;1.98;;
17175;SDS011;8703;48.996;9.594;2023-07-22T09:35:24;3.13;;;2.08;;
17175;SDS011;8703;48.996;9.594;2023-07-22T09:37:52;4.75;;;2.20;;
17175;SDS011;8703;48.996;9.594;2023-07-22T09:40:20;4.68;;;4.32;;
17175;SDS011;8703;48.996;9.594;2023-07-22T09:42:49;3.10;;;2.83;;
17175;SDS011;8703;48.996;9.594;2023-07-22T09:45:19;3.33;;;2.15;;
17175;SDS011;8703;48.996;9.594;2023-07-22T09:47:48;3.13;;;2.17;;
17175;SDS011;8703;48.996;9.594;2023-07-22T09:50:17;6.05;;;5.63;;
17175;SDS011;8703;48.996;9.594;2023-07-22T09:52:47;5.88;;;5.18;;
17175;SDS011;8703;48.996;9.594;2023-07-22T09:55:16;7.28;;;6.78;;
17175;SDS011;8703;48.996;9.594;2023-07-22T09:57:45;2.88;;;2.60;;
17175;SDS011;8703;48.996;9.594;2023-07-22T10:00:13;3.50;;;2.13;;
17175;SDS011;8703;48.996;9.594;2023-07-22T10:02:43;2.45;;;2.25;;
17175;SDS011;8703;48.996;9.594;2023-07-22T10:05:12;2.88;;;2.00;;
17175;SDS011;8703;48.996;9.594;2023-07-22T10:07:44;3.33;;;3.13;;
17175;SDS011;8703;48.996;9.594;2023-07-22T10:10:15;5.40;;;5.07;;
17175;SDS011;8703;48.996;9.594;2023-07-22T10:12:43;3.05;;;2.40;;
17175;SDS011;8703;48.996;9.594;2023-07-22T10:15:11;4.90;;;3.88;;
17175;SDS011;8703;48.996;9.594;2023-07-22T10:17:40;4.68;;;4.35;;
17175;SDS011;8703;48.996;9.594;2023-07-22T10:20:11;3.30;;;2.90;;
17175;SDS011;8703;48.996;9.594;2023-07-22T10:22:41;3.65;;;3.40;;
17175;SDS011;8703;48.996;9.594;2023-07-22T10:25:10;2.55;;;2.35;;
17175;SDS011;8703;48.996;9.594;2023-07-22T10:27:38;4.43;;;2.63;;
17175;SDS011;8703;48.996;9.594;2023-07-22T10:30:06;11.63;;;10.88;;
17175;SDS011;8703;48.996;9.594;2023-07-22T10:32:35;10.48;;;9.80;;
17175;SDS011;8703;48.996;9.594;2023-07-22T10:35:07;13.27;;;12.40;;
17175;SDS011;8703;48.996;9.594;2023-07-22T10:37:36;6.63;;;6.22;;
17175;SDS011;8703;48.996;9.594;2023-07-22T10:40:19;6.05;;;5.70;;
17175;SDS011;8703;48.996;9.594;2023-07-22T10:42:52;11.15;;;10.48;;
17175;SDS011;8703;48.996;9.594;2023-07-22T10:45:25;11.70;;;11.00;;
17175;SDS011;8703;48.996;9.594;2023-07-22T10:48:00;11.90;;;11.23;;
17175;SDS011;8703;48.996;9.594;2023-07-22T10:50:39;7.35;;;6.85;;
17175;SDS011;8703;48.996;9.594;2023-07-22T10:53:09;16.50;;;15.55;;
17175;SDS011;8703;48.996;9.594;2023-07-22T10:58:29;9.15;;;8.50;;
17175;SDS011;8703;48.996;9.594;2023-07-22T11:01:05;28.75;;;27.00;;
17175;SDS011;8703;48.996;9.594;2023-07-22T11:04:03;19.08;;;17.95;;
17175;SDS011;8703;48.996;9.594;2023-07-22T11:06:37;11.43;;;10.82;;
17175;SDS011;8703;48.996;9.594;2023-07-22T11:09:06;16.88;;;16.00;;
17175;SDS011;8703;48.996;9.594;2023-07-22T11:11:37;27.83;;;26.33;;
17175;SDS011;8703;48.996;9.594;2023-07-22T11:14:15;18.15;;;17.23;;
17175;SDS011;8703;48.996;9.594;2023-07-22T11:16:44;20.10;;;18.85;;
17175;SDS011;8703;48.996;9.594;2023-07-22T11:19:12;21.50;;;20.40;;
17175;SDS011;8703;48.996;9.594;2023-07-22T11:21:42;32.70;;;30.90;;
17175;SDS011;8703;48.996;9.594;2023-07-22T11:24:09;16.90;;;15.77;;
17175;SDS011;8703;48.996;9.594;2023-07-22T11:26:37;21.15;;;19.90;;
17175;SDS011;8703;48.996;9.594;2023-07-22T11:29:05;35.10;;;33.25;;
17175;SDS011;8703;48.996;9.594;2023-07-22T11:31:33;23.50;;;22.17;;
17175;SDS011;8703;48.996;9.594;2023-07-22T11:34:02;37.97;;;35.95;;
17175;SDS011;8703;48.996;9.594;2023-07-22T11:36:30;15.20;;;14.32;;
17175;SDS011;8703;48.996;9.594;2023-07-22T11:39:02;32.75;;;30.90;;
17175;SDS011;8703;48.996;9.594;2023-07-22T11:41:31;16.33;;;15.40;;
17175;SDS011;8703;48.996;9.594;2023-07-22T11:43:59;23.90;;;22.67;;
17175;SDS011;8703;48.996;9.594;2023-07-22T11:46:28;28.92;;;27.27;;
17175;SDS011;8703;48.996;9.594;2023-07-22T11:48:55;25.90;;;24.53;;
17175;SDS011;8703;48.996;9.594;2023-07-22T11:51:23;21.20;;;19.95;;
17175;SDS011;8703;48.996;9.594;2023-07-22T11:53:51;75.07;;;71.22;;
17175;SDS011;8703;48.996;9.594;2023-07-22T11:56:22;43.92;;;41.63;;
17175;SDS011;8703;48.996;9.594;2023-07-22T11:58:51;44.35;;;41.97;;
17175;SDS011;8703;48.996;9.594;2023-07-22T12:01:19;68.80;;;65.18;;
17175;SDS011;8703;48.996;9.594;2023-07-22T12:03:47;58.83;;;55.75;;
17175;SDS011;8703;48.996;9.594;2023-07-22T12:06:15;29.23;;;27.65;;
17175;SDS011;8703;48.996;9.594;2023-07-22T12:08:43;49.10;;;45.95;;
17175;SDS011;8703;48.996;9.594;2023-07-22T12:11:17;44.05;;;41.47;;
17175;SDS011;8703;48.996;9.594;2023-07-22T12:13:46;98.88;;;94.03;;
17175;SDS011;8703;48.996;9.594;2023-07-22T12:16:22;36.25;;;34.25;;
17175;SDS011;8703;48.996;9.594;2023-07-22T12:18:50;48.65;;;45.95;;
17175;SDS011;8703;48.996;9.594;2023-07-22T12:21:20;51.03;;;48.20;;
17175;SDS011;8703;48.996;9.594;2023-07-22T12:23:47;100.93;;;95.93;;
17175;SDS011;8703;48.996;9.594;2023-07-22T12:26:15;93.63;;;88.85;;
17175;SDS011;8703;48.996;9.594;2023-07-22T12:28:42;103.30;;;98.25;;
17175;SDS011;8703;48.996;9.594;2023-07-22T12:31:11;131.60;;;124.88;;
17175;SDS011;8703;48.996;9.594;2023-07-22T12:33:38;203.73;;;193.18;;
17175;SDS011;8703;48.996;9.594;2023-07-22T12:36:06;177.50;;;168.60;;
17175;SDS011;8703;48.996;9.594;2023-07-22T12:38:33;161.20;;;153.35;;
17175;SDS011;8703;48.996;9.594;2023-07-22T12:41:01;164.55;;;155.68;;
17175;SDS011;8703;48.996;9.594;2023-07-22T12:43:29;308.60;;;291.70;;
17175;SDS011;8703;48.996;9.594;2023-07-22T12:45:56;179.35;;;169.88;;
17175;SDS011;8703;48.996;9.594;2023-07-22T12:48:25;317.85;;;300.58;;
17175;SDS011;8703;48.996;9.594;2023-07-22T12:50:52;495.38;;;467.52;;
17175;SDS011;8703;48.996;9.594;2023-07-22T12:53:20;391.83;;;370.45;;
17175;SDS011;8703;48.996;9.594;2023-07-22T12:55:48;464.88;;;438.33;;
17175;SDS011;8703;48.996;9.594;2023-07-22T12:58:15;413.20;;;389.95;;
17175;SDS011;8703;48.996;9.594;2023-07-22T13:00:42;245.80;;;232.10;;
17175;SDS011;8703;48.996;9.594;2023-07-22T13:03:10;560.63;;;527.63;;
17175;SDS011;8703;48.996;9.594;2023-07-22T13:05:39;525.28;;;494.52;;
17175;SDS011;8703;48.996;9.594;2023-07-22T13:08:06;569.65;;;534.55;;
17175;SDS011;8703;48.996;9.594;2023-07-22T13:10:33;661.63;;;618.67;;
17175;SDS011;8703;48.996;9.594;2023-07-22T13:13:03;522.13;;;492.10;;
17175;SDS011;8703;48.996;9.594;2023-07-22T13:15:31;519.95;;;489.83;;
17175;SDS011;8703;48.996;9.594;2023-07-22T13:17:58;511.83;;;482.80;;
17175;SDS011;8703;48.996;9.594;2023-07-22T13:20:25;555.15;;;521.78;;
17175;SDS011;8703;48.996;9.594;2023-07-22T13:22:54;526.08;;;495.00;;
17175;SDS011;8703;48.996;9.594;2023-07-22T13:25:22;377.05;;;356.58;;
17175;SDS011;8703;48.996;9.594;2023-07-22T13:27:50;383.05;;;361.58;;
17175;SDS011;8703;48.996;9.594;2023-07-22T13:30:17;437.90;;;413.17;;
17175;SDS011;8703;48.996;9.594;2023-07-22T13:32:45;471.33;;;445.45;;
17175;SDS011;8703;48.996;9.594;2023-07-22T13:35:12;417.48;;;394.45;;
17175;SDS011;8703;48.996;9.594;2023-07-22T13:37:39;430.33;;;406.77;;
17175;SDS011;8703;48.996;9.594;2023-07-22T13:40:09;350.80;;;330.88;;
17175;SDS011;8703;48.996;9.594;2023-07-22T13:42:37;372.42;;;352.45;;
17175;SDS011;8703;48.996;9.594;2023-07-22T13:45:05;411.65;;;389.95;;
17175;SDS011;8703;48.996;9.594;2023-07-22T13:47:33;387.40;;;366.50;;
17175;SDS011;8703;48.996;9.594;2023-07-22T13:50:00;447.95;;;424.05;;
17175;SDS011;8703;48.996;9.594;2023-07-22T13:52:28;467.30;;;442.00;;
17175;SDS011;8703;48.996;9.594;2023-07-22T13:54:55;438.02;;;412.60;;
17175;SDS011;8703;48.996;9.594;2023-07-22T13:57:24;440.02;;;416.98;;
17175;SDS011;8703;48.996;9.594;2023-07-22T13:59:51;353.15;;;335.27;;
17175;SDS011;8703;48.996;9.594;2023-07-22T14:02:19;365.55;;;346.30;;
17175;SDS011;8703;48.996;9.594;2023-07-22T14:04:46;126.60;;;119.88;;
17175;SDS011;8703;48.996;9.594;2023-07-22T14:07:13;666.38;;;620.47;;
17175;SDS011;8703;48.996;9.594;2023-07-22T14:09:42;695.45;;;648.63;;
17175;SDS011;8703;48.996;9.594;2023-07-22T14:12:10;587.92;;;549.65;;
17175;SDS011;8703;48.996;9.594;2023-07-22T14:14:39;757.00;;;706.38;;
17175;SDS011;8703;48.996;9.594;2023-07-22T14:17:06;721.45;;;670.65;;
17175;SDS011;8703;48.996;9.594;2023-07-22T14:19:33;211.60;;;198.15;;
17175;SDS011;8703;48.996;9.594;2023-07-22T14:22:01;640.42;;;596.85;;
17175;SDS011;8703;48.996;9.594;2023-07-22T14:24:29;733.30;;;683.00;;
17175;SDS011;8703;48.996;9.594;2023-07-22T14:26:56;693.50;;;648.88;;
17175;SDS011;8703;48.996;9.594;2023-07-22T14:29:23;652.47;;;611.75;;
17175;SDS011;8703;48.996;9.594;2023-07-22T14:31:52;748.08;;;697.90;;
17175;SDS011;8703;48.996;9.594;2023-07-22T14:34:21;800.20;;;742.80;;
17175;SDS011;8703;48.996;9.594;2023-07-22T14:36:48;808.35;;;748.88;;
17175;SDS011;8703;48.996;9.594;2023-07-22T14:39:16;800.88;;;742.15;;
17175;SDS011;8703;48.996;9.594;2023-07-22T14:41:43;778.72;;;724.25;;
17175;SDS011;8703;48.996;9.594;2023-07-22T14:44:11;759.10;;;706.05;;
17175;SDS011;8703;48.996;9.594;2023-07-22T14:46:38;762.08;;;706.25;;
17175;SDS011;8703;48.996;9.594;2023-07-22T14:49:07;739.63;;;689.70;;
17175;SDS011;8703;48.996;9.594;2023-07-22T14:51:34;686.25;;;640.10;;
17175;SDS011;8703;48.996;9.594;2023-07-22T14:54:02;690.15;;;643.50;;
17175;SDS011;8703;48.996;9.594;2023-07-22T14:56:30;753.63;;;702.20;;